createdAt,value
2019-02-22T00:02:40.692Z,19.59
2019-02-22T00:06:10.696Z,16.73
2019-02-22T00:09:49.092Z,20.26
2019-02-22T00:13:21.049Z,18.84
2019-02-22T00:16:51.103Z,21.15
2019-02-22T00:20:21.174Z,21.15
2019-02-22T00:23:51.276Z,20.05
2019-02-22T00:27:21.418Z,22.6
2019-02-22T00:30:51.460Z,23.34
2019-02-22T00:34:21.735Z,19.09
2019-02-22T00:37:51.905Z,17.59
2019-02-22T00:41:21.967Z,21.72
2019-02-22T00:44:52.119Z,18.51
2019-02-22T00:48:22.131Z,16.29
2019-02-22T00:51:52.223Z,18.71
2019-02-22T00:55:22.500Z,17.76
2019-02-22T00:58:52.521Z,23.99
2019-02-22T01:02:22.550Z,21.74
2019-02-22T01:05:52.574Z,21.93
2019-02-22T01:09:22.725Z,15.61
2019-02-22T01:12:52.799Z,14.95
2019-02-22T01:16:23.889Z,18.14
2019-02-22T01:19:53.914Z,25.09
2019-02-22T01:23:23.987Z,17.9
2019-02-22T01:26:54.026Z,19.73
2019-02-22T01:30:24.068Z,23.95
2019-02-22T01:33:54.337Z,19.33
2019-02-22T01:37:24.423Z,22.6
2019-02-22T01:40:54.515Z,23.29
2019-02-22T01:44:24.597Z,21.27
2019-02-22T01:47:54.624Z,21.27
2019-02-22T01:51:24.678Z,20.23
2019-02-22T01:54:54.685Z,22.39
2019-02-22T01:58:24.799Z,20.11
2019-02-22T02:00:16.200Z,23.36
2019-02-22T02:03:46.259Z,23.55
2019-02-22T02:07:16.291Z,16.94
2019-02-22T02:10:53.926Z,24.41
2019-02-22T02:14:24.566Z,16.56
2019-02-22T02:17:55.747Z,11.09
2019-02-22T02:21:25.880Z,27
2019-02-22T02:24:55.982Z,23.67
2019-02-22T02:28:26.144Z,16.25
2019-02-22T02:31:56.167Z,24.12
2019-02-22T02:35:26.169Z,25.47
2019-02-22T02:38:56.254Z,20.62
2019-02-22T02:42:26.373Z,22.95
2019-02-22T02:45:56.415Z,22.66
2019-02-22T02:49:26.462Z,25.64
2019-02-22T02:52:56.490Z,10.19
2019-02-22T02:56:26.592Z,22.62
2019-02-22T02:59:56.755Z,25.36
2019-02-22T03:03:26.727Z,24.21
2019-02-22T03:07:05.698Z,20.19
2019-02-22T03:10:35.712Z,25.8
2019-02-22T03:14:05.843Z,25.94
2019-02-22T03:17:35.965Z,24.85
2019-02-22T03:21:07.058Z,24.62
2019-02-22T03:24:37.310Z,24.64
2019-02-22T03:28:07.459Z,14.88
2019-02-22T03:31:37.439Z,22.99
2019-02-22T03:35:07.526Z,25.82
2019-02-22T03:38:37.589Z,27.41
2019-02-22T03:42:07.772Z,13.07
2019-02-22T03:45:37.933Z,14.11
2019-02-22T03:49:08.099Z,9.43
2019-02-22T03:52:43.425Z,17.31
2019-02-22T03:56:13.580Z,20.99
2019-02-22T03:59:43.623Z,23.41
2019-02-22T04:00:16.222Z,20.52
2019-02-22T04:03:46.424Z,24.39
2019-02-22T04:07:16.408Z,28.88
2019-02-22T04:10:46.471Z,3.61
2019-02-22T04:14:16.514Z,21.34
2019-02-22T04:17:46.553Z,22.8
2019-02-22T04:21:17.506Z,25.46
2019-02-22T04:24:47.608Z,23.12
2019-02-22T04:28:17.630Z,28.19
2019-02-22T04:31:47.691Z,19.73
2019-02-22T04:35:17.784Z,28.68
2019-02-22T04:38:47.836Z,18.48
2019-02-22T04:42:17.916Z,20.66
2019-02-22T04:45:48.011Z,22.34
2019-02-22T04:49:18.054Z,24.65
2019-02-22T04:52:48.205Z,22.75
2019-02-22T04:56:18.218Z,20.69
2019-02-22T04:59:48.229Z,21.31
2019-02-22T05:03:18.326Z,20.7
2019-02-22T05:06:48.375Z,17.8
2019-02-22T05:10:18.447Z,16.91
2019-02-22T05:13:48.638Z,21.89
2019-02-22T05:17:18.642Z,18.99
2019-02-22T05:20:48.702Z,25.18
2019-02-22T05:24:19.746Z,21.38
2019-02-22T05:27:49.980Z,14.17
2019-02-22T05:31:20.065Z,24.79
2019-02-22T05:34:50.141Z,19.43
2019-02-22T05:38:20.094Z,23.62
2019-02-22T05:41:50.177Z,21.06
2019-02-22T05:45:20.218Z,11.61
2019-02-22T05:48:50.281Z,22.36
2019-02-22T05:52:20.263Z,20.5
2019-02-22T05:55:50.245Z,27.62
2019-02-22T05:59:20.278Z,19.45
2019-02-22T06:00:17.201Z,27.19
2019-02-22T06:03:47.540Z,19.09
2019-02-22T06:07:17.687Z,12.52
2019-02-22T06:10:47.714Z,10.62
2019-02-22T06:14:17.746Z,22.44
2019-02-22T06:17:48.101Z,27.65
2019-02-22T06:21:18.081Z,18.83
2019-02-22T06:24:48.390Z,17.65
2019-02-22T06:28:18.508Z,21.14
2019-02-22T06:31:48.574Z,19.66
2019-02-22T06:35:18.711Z,24.49
2019-02-22T06:38:48.716Z,22.4
2019-02-22T06:42:18.635Z,23.17
2019-02-22T06:45:48.721Z,25.49
2019-02-22T06:49:18.841Z,19.99
2019-02-22T06:52:48.901Z,23.14
2019-02-22T06:56:18.924Z,20.12
2019-02-22T06:59:49.005Z,24.35
2019-02-22T07:03:19.085Z,17.23
2019-02-22T07:06:49.190Z,20.23
2019-02-22T07:10:19.278Z,29.48
2019-02-22T07:13:49.268Z,21.71
2019-02-22T07:17:19.317Z,21.16
2019-02-22T07:20:49.319Z,22.46
2019-02-22T07:24:19.422Z,17.96
2019-02-22T07:27:50.606Z,26.26
2019-02-22T07:31:20.746Z,20.71
2019-02-22T07:34:50.919Z,21.26
2019-02-22T07:38:20.958Z,27.27
2019-02-22T07:41:50.994Z,25.93
2019-02-22T07:45:21.136Z,21.66
2019-02-22T07:48:51.240Z,18.51
2019-02-22T07:52:21.340Z,23.11
2019-02-22T07:55:51.423Z,18.18
2019-02-22T07:59:21.446Z,25.29
2019-02-22T08:00:16.727Z,26.77
2019-02-22T08:03:47.150Z,24.48
2019-02-22T08:07:17.441Z,22.4
2019-02-22T08:10:47.569Z,26.85
2019-02-22T08:14:17.652Z,27.51
2019-02-22T08:17:47.818Z,20.74
2019-02-22T08:21:17.839Z,12.96
2019-02-22T08:24:47.984Z,23.01
2019-02-22T08:28:19.217Z,28.27
2019-02-22T08:31:49.326Z,28.86
2019-02-22T08:35:19.422Z,24.1
2019-02-22T08:38:49.413Z,25.6
2019-02-22T08:42:19.494Z,24.48
2019-02-22T08:45:49.611Z,23.49
2019-02-22T08:49:19.639Z,24.16
2019-02-22T08:52:49.653Z,27.45
2019-02-22T08:56:19.645Z,31.82
2019-02-22T08:59:49.758Z,27.27
2019-02-22T09:03:19.745Z,30.76
2019-02-22T09:06:52.342Z,27.39
2019-02-22T09:10:22.554Z,29.32
2019-02-22T09:13:52.713Z,27.73
2019-02-22T09:17:22.969Z,29.01
2019-02-22T09:20:53.095Z,28.55
2019-02-22T09:24:23.225Z,30.97
2019-02-22T09:27:53.327Z,28.45
2019-02-22T09:31:23.469Z,26.98
2019-02-22T09:34:53.569Z,28.7
2019-02-22T09:38:23.718Z,30.45
2019-02-22T09:41:53.777Z,28.29
2019-02-22T09:45:24.688Z,28.24
2019-02-22T09:48:54.922Z,27.77
2019-02-22T09:52:24.995Z,24.1
2019-02-22T09:55:55.307Z,40.64
2019-02-22T09:59:25.319Z,28.99
2019-02-22T10:00:16.970Z,42.09
2019-02-22T10:03:47.073Z,35.85
2019-02-22T10:07:17.185Z,27.66
2019-02-22T10:10:47.307Z,33.31
2019-02-22T10:14:17.420Z,30.33
2019-02-22T10:17:47.563Z,36.69
2019-02-22T10:21:17.615Z,24.06
2019-02-22T10:24:48.034Z,23.64
2019-02-22T10:28:18.297Z,22.54
2019-02-22T10:31:49.437Z,24.51
2019-02-22T10:35:19.397Z,31.95
2019-02-22T10:38:49.600Z,27.73
2019-02-22T10:42:19.630Z,30
2019-02-22T10:45:49.775Z,26.86
2019-02-22T10:49:19.856Z,28.18
2019-02-22T10:52:49.928Z,32.55
2019-02-22T10:56:20.030Z,26.61
2019-02-22T10:59:50.230Z,27.69
2019-02-22T11:03:20.295Z,30.52
2019-02-22T11:06:50.467Z,28.56
2019-02-22T11:10:20.510Z,29.96
2019-02-22T11:13:50.662Z,28.26
2019-02-22T11:17:20.659Z,28.1
2019-02-22T11:20:50.728Z,22.26
2019-02-22T11:24:20.954Z,27.8
2019-02-22T11:27:51.096Z,31.95
2019-02-22T11:31:21.160Z,25.88
2019-02-22T11:34:51.361Z,33.44
2019-02-22T11:38:21.510Z,30.84
2019-02-22T11:41:51.548Z,30.39
2019-02-22T11:45:21.707Z,12.53
2019-02-22T11:48:51.726Z,29.62
2019-02-22T11:52:21.817Z,28.56
2019-02-22T11:55:52.060Z,26.6
2019-02-22T11:59:22.050Z,32.34
2019-02-22T12:00:18.210Z,18.71
2019-02-22T12:03:48.343Z,12.79
2019-02-22T12:07:18.375Z,29.75
2019-02-22T12:10:48.560Z,14.34
2019-02-22T12:14:18.775Z,29.51
2019-02-22T12:17:48.866Z,20.4
2019-02-22T12:21:18.940Z,32.29
2019-02-22T12:24:48.988Z,29.05
2019-02-22T12:28:19.102Z,27.93
2019-02-22T12:31:49.321Z,31.16
2019-02-22T12:35:19.492Z,8.99
2019-02-22T12:38:49.633Z,26.31
2019-02-22T12:42:19.675Z,29.55
2019-02-22T12:45:49.797Z,17.98
2019-02-22T12:49:19.807Z,27.43
2019-02-22T12:52:49.908Z,24.44
2019-02-22T12:56:21.583Z,29.96
2019-02-22T13:00:02.472Z,33.25
2019-02-22T13:03:32.522Z,24.67
2019-02-22T13:07:02.653Z,31.95
2019-02-22T13:10:32.730Z,27.68
2019-02-22T13:14:02.994Z,34.23
2019-02-22T13:17:33.060Z,26.77
2019-02-22T13:21:03.229Z,30.09
2019-02-22T13:24:33.317Z,33.76
2019-02-22T13:28:03.417Z,23.93
2019-02-22T13:31:33.506Z,30.79
2019-02-22T13:35:04.045Z,35.1
2019-02-22T13:38:35.005Z,25.89
2019-02-22T13:42:05.120Z,35.85
2019-02-22T13:45:35.302Z,30.54
2019-02-22T13:49:05.817Z,30.12
2019-02-22T13:52:35.901Z,26.15
2019-02-22T13:56:06.064Z,30.73
2019-02-22T13:59:36.059Z,31.21
2019-02-22T14:00:16.484Z,34.44
2019-02-22T14:03:46.594Z,28.02
2019-02-22T14:07:16.628Z,19.12
2019-02-22T14:10:46.677Z,12.95
2019-02-22T14:14:16.826Z,31.76
2019-02-22T14:17:47.037Z,24.4
2019-02-22T14:21:17.053Z,34.95
2019-02-22T14:24:47.104Z,32.75
2019-02-22T14:28:17.073Z,26.19
2019-02-22T14:31:47.193Z,30.93
2019-02-22T14:35:17.335Z,28.28
2019-02-22T14:38:48.440Z,42.76
2019-02-22T14:42:18.697Z,28.71
2019-02-22T14:45:52.197Z,34.01
2019-02-22T14:49:23.165Z,28.88
2019-02-22T14:52:53.338Z,41.17
2019-02-22T14:56:23.541Z,25.23
2019-02-22T14:59:53.714Z,15.26
2019-02-22T15:03:23.769Z,17.8
2019-02-22T15:06:53.910Z,12.2
2019-02-22T15:10:23.903Z,18.7
2019-02-22T15:13:53.957Z,9.65
2019-02-22T15:17:30.760Z,11.39
2019-02-22T15:21:00.933Z,20.62
2019-02-22T15:24:32.969Z,17.16
2019-02-22T15:28:03.249Z,19.51
2019-02-22T15:31:36.086Z,8.29
2019-02-22T15:35:09.170Z,8.38
2019-02-22T15:38:39.138Z,13.05
2019-02-22T15:42:10.177Z,18.48
2019-02-22T15:45:40.313Z,17.28
2019-02-22T15:49:10.469Z,37.95
2019-02-22T15:52:40.613Z,18.98
2019-02-22T15:56:10.560Z,16.85
2019-02-22T15:59:40.717Z,16.99
2019-02-22T16:00:19.801Z,24.7
2019-02-22T16:03:54.135Z,19.39
2019-02-22T16:07:24.321Z,22.29
2019-02-22T16:10:54.500Z,4.94
2019-02-22T16:14:24.495Z,21.74
2019-02-22T16:17:54.602Z,17.44
2019-02-22T16:21:24.659Z,24.11
2019-02-22T16:24:54.756Z,23.04
2019-02-22T16:28:24.743Z,24.76
2019-02-22T16:31:54.850Z,9.45
2019-02-22T16:35:24.927Z,21.81
2019-02-22T16:38:55.078Z,20.82
2019-02-22T16:42:26.131Z,28.8
2019-02-22T16:45:56.148Z,24.95
2019-02-22T16:49:26.145Z,11.6
2019-02-22T16:52:56.233Z,22.5
2019-02-22T16:56:26.320Z,26.71
2019-02-22T16:59:56.366Z,15.57
2019-02-22T17:03:26.423Z,20.81
2019-02-22T17:06:56.490Z,16.41
2019-02-22T17:10:26.477Z,19.94
2019-02-22T17:13:56.551Z,11.74
2019-02-22T17:17:26.451Z,23.48
2019-02-22T17:20:56.528Z,19.34
2019-02-22T17:24:26.531Z,20.96
2019-02-22T17:27:56.574Z,15.56
2019-02-22T17:31:26.579Z,16.86
2019-02-22T17:34:56.644Z,16.19
2019-02-22T17:38:26.713Z,10.34
2019-02-22T17:41:56.890Z,11.15
2019-02-22T17:45:27.910Z,6.71
2019-02-22T17:48:57.974Z,2.34
2019-02-22T17:52:28.011Z,6.12
2019-02-22T17:55:58.097Z,2.5
2019-02-22T17:59:28.115Z,1.86
2019-02-22T18:00:17.829Z,3.27
2019-02-22T18:03:47.892Z,3.39
2019-02-22T18:07:17.889Z,3.59
2019-02-22T18:10:48.131Z,2.34
2019-02-22T18:14:18.292Z,3.49
2019-02-22T18:17:48.449Z,3.01
2019-02-22T18:21:18.566Z,2.8
2019-02-22T18:24:48.663Z,3.6
2019-02-22T18:28:18.774Z,2.58
2019-02-22T18:31:49.007Z,3.2
2019-02-22T18:35:18.990Z,2.16
2019-02-22T18:38:49.060Z,2.55
2019-02-22T18:42:19.037Z,1.99
2019-02-22T18:45:50.064Z,2.39
2019-02-22T18:49:20.110Z,0.8
2019-02-22T18:52:50.118Z,2.34
2019-02-22T18:56:20.139Z,2.7
2019-02-22T18:59:50.181Z,2.71
2019-02-22T19:03:20.189Z,2.23
2019-02-22T19:06:50.576Z,1.91
2019-02-22T19:10:20.702Z,3.17
2019-02-22T19:13:50.704Z,3.01
2019-02-22T19:17:30.036Z,1.68
2019-02-22T19:21:00.577Z,1.92
2019-02-22T19:24:38.931Z,7.12
2019-02-22T19:28:09.064Z,2.51
2019-02-22T19:31:39.035Z,2.46
2019-02-22T19:35:09.136Z,7.1
2019-02-22T19:38:39.261Z,4.04
2019-02-22T19:42:09.753Z,3.8
2019-02-22T19:43:42.667Z,6.17
2019-02-22T19:47:13.672Z,8.24
2019-02-22T19:50:43.580Z,4.75
2019-02-22T19:54:13.631Z,2.52
2019-02-22T19:57:54.854Z,4.09
2019-02-22T20:00:15.883Z,3.81
2019-02-22T20:03:45.890Z,6.92
2019-02-22T20:07:16.069Z,5.24
2019-02-22T20:10:46.046Z,2.82
2019-02-22T20:14:16.107Z,5.09
2019-02-22T20:17:54.301Z,9.57
2019-02-22T20:21:25.044Z,18.88
2019-02-22T20:24:55.054Z,6.11
2019-02-22T20:28:25.184Z,4.78
2019-02-22T20:31:55.173Z,4.51
2019-02-22T20:35:25.309Z,1.29
2019-02-22T20:38:55.409Z,4.29
2019-02-22T20:42:25.498Z,14.74
2019-02-22T20:45:55.603Z,2.25
2019-02-22T20:49:26.635Z,8.14
2019-02-22T20:52:56.634Z,2.77
2019-02-22T20:56:26.593Z,8.51
2019-02-22T20:59:56.571Z,3.8
2019-02-22T21:03:26.670Z,6.1
2019-02-22T21:06:56.639Z,14.09
2019-02-22T21:10:26.707Z,4.88
2019-02-22T21:13:56.725Z,11.91
2019-02-22T21:17:26.785Z,12.67
2019-02-22T21:20:56.832Z,14.89
2019-02-22T21:24:27.001Z,2.41
2019-02-22T21:27:56.985Z,4.3
2019-02-22T21:31:27.200Z,2.15
2019-02-22T21:34:57.397Z,3.69
2019-02-22T21:38:27.514Z,3.36
2019-02-22T21:41:57.571Z,2.54
2019-02-22T21:45:27.641Z,8.39
2019-02-22T21:48:57.620Z,3.12
2019-02-22T21:52:27.789Z,5.51
2019-02-22T21:55:57.838Z,3.5
2019-02-22T21:59:28.056Z,5.26
2019-02-22T22:00:16.646Z,7.68
2019-02-22T22:03:46.674Z,9.95
2019-02-22T22:07:16.802Z,13.28
2019-02-22T22:10:46.861Z,1.99
2019-02-22T22:14:17.009Z,2.06
2019-02-22T22:17:47.167Z,9.25
2019-02-22T22:21:17.196Z,2.14
2019-02-22T22:24:47.215Z,3.12
2019-02-22T22:28:17.474Z,5.09
2019-02-22T22:31:47.563Z,3.54
2019-02-22T22:35:17.779Z,4.2
2019-02-22T22:38:47.712Z,6.6
2019-02-22T22:42:17.839Z,3.88
2019-02-22T22:45:47.810Z,5.92
2019-02-22T22:49:17.955Z,5.46
2019-02-22T22:52:49.038Z,3.71
2019-02-22T22:56:19.016Z,7.06
2019-02-22T22:59:49.009Z,5.84
2019-02-22T23:03:19.390Z,10.09
2019-02-22T23:06:49.395Z,4.05
2019-02-22T23:10:19.727Z,4.78
2019-02-22T23:13:49.711Z,3.34
2019-02-22T23:17:19.801Z,4.71
2019-02-22T23:20:49.921Z,2.58
2019-02-22T23:24:20.026Z,3.6
2019-02-22T23:27:50.072Z,6.28
2019-02-22T23:31:20.142Z,5.41
2019-02-22T23:34:50.174Z,5.81
2019-02-22T23:38:20.265Z,3.33
2019-02-22T23:41:50.247Z,5.09
2019-02-22T23:45:20.429Z,4.15
2019-02-22T23:48:50.472Z,3.3
2019-02-22T23:52:20.495Z,3.79
2019-02-22T23:55:51.413Z,8.44
2019-02-22T23:59:21.426Z,4.35
